Time;durP1;ratioP1;P1;durP2;ratioP2;P2;SDS_P1;SDS_P2;PMS_P1;PMS_P2;Temp;Humidity;BMP_temperature;BMP_pressure;BME280_temperature;BME280_humidity;BME280_pressure;Samples;Min_cycle;Max_cycle;Signal;HPM_P1;HPM_P2
2023/04/16 00:01:55;;;;;;;37.38;11.48;;;;;;;7.03;100.00;102194.94;4963685;28;20046;-73
2023/04/16 00:04:20;;;;;;;34.00;10.68;;;;;;;7.03;100.00;102197.56;4963322;28;20030;-72
2023/04/16 00:06:46;;;;;;;38.05;11.07;;;;;;;7.02;100.00;102201.94;4981371;28;20054;-74
2023/04/16 00:09:11;;;;;;;34.67;10.50;;;;;;;7.01;100.00;102199.31;4948724;28;20089;-72
2023/04/16 00:11:37;;;;;;;33.83;11.13;;;;;;;7.00;100.00;102203.72;4963114;28;20065;-72
2023/04/16 00:14:02;;;;;;;28.02;10.18;;;;;;;7.00;100.00;102200.19;4980834;28;20046;-72
2023/04/16 00:16:28;;;;;;;30.95;10.60;;;;;;;6.99;100.00;102209.00;4979926;28;20046;-73
2023/04/16 00:18:53;;;;;;;33.38;10.85;;;;;;;6.99;100.00;102198.47;4962603;28;20034;-72
2023/04/16 00:21:19;;;;;;;36.15;10.55;;;;;;;6.98;100.00;102202.00;4980733;28;20147;-72
2023/04/16 00:23:44;;;;;;;33.50;10.38;;;;;;;6.99;100.00;102201.09;4964983;28;21119;-72
2023/04/16 00:26:10;;;;;;;28.77;10.52;;;;;;;6.98;100.00;102200.22;4964047;28;20484;-72
2023/04/16 00:28:36;;;;;;;34.60;10.90;;;;;;;6.98;100.00;102202.84;4963764;28;20038;-72
2023/04/16 00:31:01;;;;;;;34.83;11.07;;;;;;;7.00;100.00;102203.72;4965818;28;20173;-72
2023/04/16 00:33:28;;;;;;;40.92;11.75;;;;;;;7.00;100.00;102203.72;4948295;28;20049;-72
2023/04/16 00:35:54;;;;;;;34.33;10.73;;;;;;;7.01;100.00;102201.94;4946882;28;20122;-72
2023/04/16 00:38:19;;;;;;;29.33;10.45;;;;;;;7.01;100.00;102200.19;4936226;28;20096;-72
2023/04/16 00:40:45;;;;;;;32.72;10.00;;;;;;;7.01;100.00;102205.47;4968946;28;20042;-72
2023/04/16 00:43:11;;;;;;;31.27;9.95;;;;;;;7.01;100.00;102204.56;4968894;28;20042;-72
2023/04/16 00:45:36;;;;;;;28.02;9.13;;;;;;;7.02;100.00;102206.31;4950207;28;20047;-72
2023/04/16 00:48:04;;;;;;;31.23;10.15;;;;;;;7.03;100.00;102202.81;4952631;28;20096;-73
2023/04/16 00:50:30;;;;;;;31.23;10.70;;;;;;;7.03;100.00;102203.69;4970261;28;20042;-73
2023/04/16 00:52:56;;;;;;;27.67;10.13;;;;;;;7.03;100.00;102208.94;4968592;28;20532;-73
2023/04/16 00:55:22;;;;;;;35.85;10.77;;;;;;;7.03;100.00;102200.19;4970384;28;20058;-73
2023/04/16 00:57:47;;;;;;;34.15;11.73;;;;;;;7.03;100.00;102206.31;4956408;28;20084;-73
2023/04/16 01:00:13;;;;;;;29.85;10.55;;;;;;;7.05;100.00;102211.56;4968797;28;20121;-73
2023/04/16 01:02:39;;;;;;;30.00;10.25;;;;;;;7.04;100.00;102207.19;4967470;28;20045;-73
2023/04/16 01:05:04;;;;;;;29.88;10.98;;;;;;;7.05;100.00;102207.19;4969521;28;20050;-73
2023/04/16 01:07:30;;;;;;;29.60;10.95;;;;;;;7.05;100.00;102212.47;4968928;28;20073;-73
2023/04/16 01:10:03;;;;;;;30.83;10.15;;;;;;;7.06;100.00;102210.69;4982505;28;20030;-73
2023/04/16 01:12:28;;;;;;;25.48;7.90;;;;;;;7.07;100.00;102212.44;4952804;28;20023;-72
2023/04/16 01:14:54;;;;;;;29.20;10.35;;;;;;;7.09;100.00;102212.44;4935171;28;20038;-74
2023/04/16 01:17:19;;;;;;;24.10;10.63;;;;;;;7.08;100.00;102211.53;4983530;28;20035;-72
2023/04/16 01:19:45;;;;;;;30.17;10.80;;;;;;;7.08;100.00;102211.53;4951401;28;20157;-72
2023/04/16 01:22:10;;;;;;;30.85;12.05;;;;;;;7.08;100.00;102206.28;4969169;28;20051;-71
2023/04/16 01:24:37;;;;;;;32.75;11.95;;;;;;;7.09;100.00;102204.53;4983529;28;20160;-72
2023/04/16 01:27:02;;;;;;;31.95;12.43;;;;;;;7.09;100.00;102205.41;4969171;28;20554;-71
2023/04/16 01:29:28;;;;;;;33.60;12.40;;;;;;;7.09;100.00;102205.41;4950881;28;20034;-74
2023/04/16 01:31:53;;;;;;;32.47;12.63;;;;;;;7.09;100.00;102209.78;4967514;28;20038;-73
2023/04/16 01:34:19;;;;;;;32.65;13.50;;;;;;;7.08;100.00;102206.28;4983162;28;20034;-73
2023/04/16 01:36:44;;;;;;;34.83;13.23;;;;;;;7.10;100.00;102208.91;4967373;28;20061;-74
2023/04/16 01:39:10;;;;;;;32.92;12.15;;;;;;;7.09;100.00;102210.69;4965339;28;20035;-72
2023/04/16 01:41:36;;;;;;;33.63;12.95;;;;;;;7.11;100.00;102213.28;4968068;28;20034;-72
2023/04/16 01:44:01;;;;;;;34.55;12.50;;;;;;;7.11;100.00;102206.25;4968624;28;20121;-73
2023/04/16 01:46:28;;;;;;;32.28;12.30;;;;;;;7.11;100.00;102203.63;4951315;28;20045;-73
2023/04/16 01:48:54;;;;;;;31.05;12.05;;;;;;;7.11;100.00;102215.91;4980985;28;20127;-73
2023/04/16 01:51:20;;;;;;;30.42;11.88;;;;;;;7.10;100.00;102212.41;4966841;28;20070;-73
2023/04/16 01:53:45;;;;;;;39.25;12.88;;;;;;;7.10;100.00;102215.06;4966470;28;20034;-73
2023/04/16 01:56:11;;;;;;;32.58;13.00;;;;;;;7.10;100.00;102204.53;4968678;28;20030;-73
2023/04/16 01:58:37;;;;;;;38.83;13.35;;;;;;;7.09;100.00;102213.31;4970812;28;20069;-73
2023/04/16 02:01:04;;;;;;;39.90;12.98;;;;;;;7.09;100.00;102204.53;4969161;28;20045;-73
2023/04/16 02:03:30;;;;;;;36.00;13.35;;;;;;;7.11;100.00;102203.63;4968087;28;20162;-72
2023/04/16 02:05:56;;;;;;;42.05;14.10;;;;;;;7.11;100.00;102206.25;4950101;28;20042;-73
2023/04/16 02:08:22;;;;;;;42.40;14.52;;;;;;;7.09;100.00;102201.88;4981136;28;20465;-74
2023/04/16 02:10:49;;;;;;;41.13;14.82;;;;;;;7.08;100.00;102208.91;4964311;28;20047;-73
2023/04/16 02:13:15;;;;;;;41.42;13.85;;;;;;;7.07;100.00;102201.91;4948963;28;20035;-73
2023/04/16 02:15:47;;;;;;;42.05;13.80;;;;;;;7.06;100.00;102200.16;4966981;28;20070;-73
2023/04/16 02:18:13;;;;;;;34.53;12.95;;;;;;;7.06;100.00;102202.78;4950225;28;20065;-73
2023/04/16 02:20:43;;;;;;;33.80;13.40;;;;;;;7.04;100.00;102199.31;4963974;28;20705;-73
2023/04/16 02:23:09;;;;;;;38.53;13.35;;;;;;;7.04;100.00;102194.03;4949392;28;20038;-73
2023/04/16 02:25:40;;;;;;;34.63;12.75;;;;;;;7.05;100.00;102204.56;4948114;28;20057;-74
2023/04/16 02:28:07;;;;;;;38.38;12.60;;;;;;;7.03;100.00;102205.47;4964192;28;20662;-74
2023/04/16 02:30:35;;;;;;;34.67;13.38;;;;;;;7.03;100.00;102203.69;4977859;28;20157;-74
2023/04/16 02:33:02;;;;;;;38.22;12.85;;;;;;;7.03;100.00;102205.47;4981445;28;20620;-74
2023/04/16 02:35:28;;;;;;;39.60;13.32;;;;;;;7.04;100.00;102205.44;4980036;28;20497;-73
2023/04/16 02:37:53;;;;;;;41.53;13.10;;;;;;;7.03;100.00;102203.69;4964337;28;20097;-73
2023/04/16 02:40:19;;;;;;;45.25;14.80;;;;;;;7.03;100.00;102202.81;4947199;28;20038;-73
2023/04/16 02:42:44;;;;;;;42.35;13.07;;;;;;;7.03;100.00;102203.69;4966118;28;20406;-74
2023/04/16 02:45:10;;;;;;;39.35;13.55;;;;;;;7.04;100.00;102209.84;4963780;28;20050;-73
2023/04/16 02:47:36;;;;;;;47.03;14.35;;;;;;;7.04;100.00;102210.69;4965521;28;20129;-73
2023/04/16 02:50:05;;;;;;;41.35;13.85;;;;;;;7.05;100.00;102206.31;4965588;28;20045;-73
2023/04/16 02:52:31;;;;;;;43.42;14.90;;;;;;;7.05;100.00;102207.19;4966136;28;20128;-74
2023/04/16 02:54:57;;;;;;;40.33;14.73;;;;;;;7.07;100.00;102204.53;4975118;28;20042;-74
2023/04/16 02:57:22;;;;;;;43.30;14.13;;;;;;;7.06;100.00;102211.56;4966358;28;20042;-74
2023/04/16 02:59:48;;;;;;;44.53;14.35;;;;;;;7.06;100.00;102208.06;4948769;28;20045;-74
2023/04/16 03:02:13;;;;;;;42.85;13.82;;;;;;;7.07;100.00;102213.31;4963082;28;20580;-74
2023/04/16 03:04:39;;;;;;;38.40;14.80;;;;;;;7.08;100.00;102211.53;4946977;28;20057;-73
2023/04/16 03:07:04;;;;;;;41.35;14.32;;;;;;;7.06;100.00;102206.31;4965743;28;20030;-74
2023/04/16 03:09:30;;;;;;;43.83;14.98;;;;;;;7.09;100.00;102218.56;4964980;28;20065;-73
2023/04/16 03:11:56;;;;;;;41.22;14.77;;;;;;;7.09;100.00;102213.31;4943310;28;20070;-73
2023/04/16 03:14:22;;;;;;;43.63;14.20;;;;;;;7.09;100.00;102213.31;4958342;28;20553;-73
2023/04/16 03:16:47;;;;;;;39.40;14.40;;;;;;;7.10;100.00;102219.44;4959477;28;20608;-74
2023/04/16 03:19:13;;;;;;;43.22;13.48;;;;;;;7.10;100.00;102222.06;4957747;28;20039;-73
2023/04/16 03:21:38;;;;;;;40.60;13.80;;;;;;;7.10;100.00;102225.59;4946012;28;20037;-73
2023/04/16 03:24:04;;;;;;;41.95;14.98;;;;;;;7.10;100.00;102222.06;4945054;28;20130;-73
2023/04/16 03:26:29;;;;;;;44.72;14.40;;;;;;;7.11;100.00;102223.81;4946006;28;20038;-73
2023/04/16 03:28:55;;;;;;;42.45;15.70;;;;;;;7.11;100.00;102226.44;4944062;28;21613;-73
2023/04/16 03:31:23;;;;;;;42.38;15.80;;;;;;;7.10;100.00;102225.59;4946050;28;20038;-74
2023/04/16 03:33:48;;;;;;;37.35;14.80;;;;;;;7.10;100.00;102225.59;4960598;28;20478;-74
2023/04/16 03:36:14;;;;;;;38.95;14.60;;;;;;;7.11;100.00;102242.25;4944733;28;20038;-74
2023/04/16 03:38:39;;;;;;;45.78;16.27;;;;;;;7.13;100.00;102240.50;4945990;28;20035;-75
2023/04/16 03:41:05;;;;;;;47.20;15.25;;;;;;;7.14;100.00;102243.09;4958825;28;20074;-73
2023/04/16 03:43:31;;;;;;;41.05;15.77;;;;;;;7.15;100.00;102242.19;4942020;28;20031;-73
2023/04/16 03:45:56;;;;;;;43.85;16.13;;;;;;;7.15;100.00;102244.84;4942990;28;20043;-73
2023/04/16 03:48:22;;;;;;;39.67;14.52;;;;;;;7.16;100.00;102245.72;4945390;28;20043;-74
2023/04/16 03:50:47;;;;;;;41.63;14.75;;;;;;;7.18;100.00;102247.47;4945745;28;20037;-73
2023/04/16 03:53:13;;;;;;;42.33;16.38;;;;;;;7.18;100.00;102252.72;4960733;28;21275;-73
2023/04/16 03:55:40;;;;;;;50.60;16.00;;;;;;;7.17;100.00;102250.97;4944398;28;20047;-73
2023/04/16 03:58:05;;;;;;;46.90;16.27;;;;;;;7.19;100.00;102256.22;4945563;28;20128;-73
2023/04/16 04:00:31;;;;;;;51.85;14.98;;;;;;;7.18;100.00;102250.09;4960357;28;20043;-73
2023/04/16 04:02:56;;;;;;;49.00;15.18;;;;;;;7.20;100.00;102250.09;4957418;28;20047;-73
2023/04/16 04:05:22;;;;;;;49.45;15.55;;;;;;;7.20;100.00;102250.94;4945928;28;20046;-74
2023/04/16 04:07:47;;;;;;;45.10;15.77;;;;;;;7.18;100.00;102247.47;4945292;28;20049;-73
2023/04/16 04:10:13;;;;;;;48.20;16.80;;;;;;;7.19;100.00;102250.94;4946416;28;20035;-73
2023/04/16 04:12:39;;;;;;;46.92;16.63;;;;;;;7.19;100.00;102254.47;4956322;28;20417;-74
2023/04/16 04:15:05;;;;;;;53.75;15.65;;;;;;;7.19;100.00;102251.84;4948507;28;20573;-73
2023/04/16 04:17:30;;;;;;;43.92;15.02;;;;;;;7.20;100.00;102244.81;4948500;28;20042;-73
2023/04/16 04:19:56;;;;;;;44.67;15.93;;;;;;;7.20;100.00;102243.03;4962150;28;20403;-73
2023/04/16 04:22:22;;;;;;;52.20;16.58;;;;;;;7.21;100.00;102246.56;4947720;28;20031;-73
2023/04/16 04:24:47;;;;;;;46.75;15.15;;;;;;;7.19;100.00;102246.56;4949096;28;20062;-73
2023/04/16 04:27:13;;;;;;;41.55;15.10;;;;;;;7.20;100.00;102253.56;4948333;28;22430;-73
2023/04/16 04:29:38;;;;;;;46.05;14.90;;;;;;;7.20;100.00;102263.25;4947251;28;20726;-75
2023/04/16 04:32:04;;;;;;;40.95;14.88;;;;;;;7.18;100.00;102259.75;4950733;28;20047;-73
2023/04/16 04:34:30;;;;;;;42.70;15.00;;;;;;;7.17;100.00;102258.88;4948963;28;20050;-73
2023/04/16 04:36:55;;;;;;;45.15;14.77;;;;;;;7.18;100.00;102265.91;4943502;28;20395;-73
2023/04/16 04:39:21;;;;;;;44.08;15.00;;;;;;;7.17;100.00;102272.06;4963642;28;20097;-74
2023/04/16 04:41:47;;;;;;;39.28;13.90;;;;;;;7.17;100.00;102269.41;4948962;28;20038;-73
2023/04/16 04:44:12;;;;;;;40.75;14.52;;;;;;;7.17;100.00;102268.53;4949132;28;20131;-74
2023/04/16 04:46:39;;;;;;;47.03;14.82;;;;;;;7.16;100.00;102275.59;4962269;28;20039;-73
2023/04/16 04:49:05;;;;;;;49.25;15.30;;;;;;;7.17;100.00;102273.81;4960982;28;20042;-74
2023/04/16 04:51:31;;;;;;;39.40;14.73;;;;;;;7.17;100.00;102274.69;4963170;28;20038;-73
2023/04/16 04:53:57;;;;;;;42.92;15.20;;;;;;;7.16;100.00;102280.84;4943760;28;20047;-74
2023/04/16 04:56:22;;;;;;;47.25;13.65;;;;;;;7.15;100.00;102276.44;4948828;28;20146;-74
2023/04/16 04:58:49;;;;;;;43.78;13.88;;;;;;;7.16;100.00;102274.69;4948073;28;20035;-73
2023/04/16 05:01:15;;;;;;;40.63;12.88;;;;;;;7.15;100.00;102281.72;4948467;28;20039;-73
2023/04/16 05:03:40;;;;;;;41.58;14.05;;;;;;;7.16;100.00;102274.69;4946174;28;22126;-74
2023/04/16 05:06:06;;;;;;;34.60;13.77;;;;;;;7.14;100.00;102274.69;4978708;28;20466;-74
2023/04/16 05:08:32;;;;;;;44.38;14.00;;;;;;;7.15;100.00;102281.72;4963036;28;20082;-73
2023/04/16 05:11:05;;;;;;;35.95;13.85;;;;;;;7.15;100.00;102276.44;4952337;28;20273;-73
2023/04/16 05:13:30;;;;;;;34.38;12.98;;;;;;;7.17;100.00;102286.97;4948927;28;20357;-73
2023/04/16 05:15:56;;;;;;;29.67;11.40;;;;;;;7.16;100.00;102287.88;4967342;28;20096;-73
2023/04/16 05:18:21;;;;;;;43.78;12.85;;;;;;;7.15;100.00;102281.72;4967149;28;20042;-74
2023/04/16 05:20:47;;;;;;;36.88;11.70;;;;;;;7.16;100.00;102279.97;4948812;28;20491;-73
2023/04/16 05:23:14;;;;;;;34.80;11.50;;;;;;;7.18;100.00;102286.97;4951717;28;20818;-73
2023/04/16 05:25:39;;;;;;;35.20;11.38;;;;;;;7.19;100.00;102269.38;4967296;28;20035;-73
2023/04/16 05:28:05;;;;;;;31.27;11.40;;;;;;;7.19;100.00;102278.19;4967397;28;20070;-73
2023/04/16 05:30:31;;;;;;;28.98;10.38;;;;;;;7.20;100.00;102279.91;4965079;28;20034;-73
2023/04/16 05:32:56;;;;;;;36.38;11.27;;;;;;;7.21;100.00;102288.72;4967632;28;20031;-73
2023/04/16 05:35:22;;;;;;;35.92;11.32;;;;;;;7.22;100.00;102294.84;4967618;28;20104;-73
2023/04/16 05:37:47;;;;;;;27.40;10.70;;;;;;;7.22;100.00;102300.09;4965799;28;20524;-73
2023/04/16 05:40:13;;;;;;;31.08;10.63;;;;;;;7.23;100.00;102299.25;4981978;28;20039;-73
2023/04/16 05:42:38;;;;;;;34.47;11.65;;;;;;;7.22;100.00;102295.72;4982286;28;20034;-74
2023/04/16 05:45:05;;;;;;;33.40;11.48;;;;;;;7.23;100.00;102307.16;4966979;28;20046;-73
2023/04/16 05:47:31;;;;;;;30.85;11.20;;;;;;;7.24;100.00;102299.22;4963502;28;20069;-73
2023/04/16 05:49:56;;;;;;;36.17;11.50;;;;;;;7.25;100.00;102302.72;4950231;28;20144;-73
2023/04/16 05:52:22;;;;;;;32.58;11.18;;;;;;;7.25;100.00;102303.59;4950420;28;20737;-73
2023/04/16 05:54:47;;;;;;;38.40;10.65;;;;;;;7.26;100.00;102296.56;4965189;28;20046;-73
2023/04/16 05:57:13;;;;;;;29.83;10.07;;;;;;;7.26;100.00;102307.09;4981774;28;20478;-74
2023/04/16 05:59:39;;;;;;;35.80;11.45;;;;;;;7.26;100.00;102304.47;4980930;28;20061;-73
2023/04/16 06:02:05;;;;;;;35.00;12.18;;;;;;;7.27;100.00;102306.22;4950073;28;20121;-73
2023/04/16 06:04:31;;;;;;;34.00;12.43;;;;;;;7.28;100.00;102315.88;4948574;28;20073;-73
2023/04/16 06:06:56;;;;;;;40.47;14.10;;;;;;;7.29;100.00;102315.84;4981116;28;20038;-73
2023/04/16 06:09:22;;;;;;;38.45;13.90;;;;;;;7.31;100.00;102323.75;4966493;28;20049;-73
2023/04/16 06:11:48;;;;;;;38.70;13.88;;;;;;;7.30;100.00;102324.66;4965026;28;20164;-73
2023/04/16 06:14:13;;;;;;;34.08;13.50;;;;;;;7.32;100.00;102325.50;4964762;28;20065;-73
2023/04/16 06:16:39;;;;;;;34.38;14.00;;;;;;;7.31;100.00;102329.03;4966971;28;20050;-73
2023/04/16 06:19:04;;;;;;;32.28;12.82;;;;;;;7.33;100.00;102327.25;4952691;28;20041;-73
2023/04/16 06:21:30;;;;;;;27.67;12.25;;;;;;;7.33;100.00;102333.41;4963085;28;20050;-74
2023/04/16 06:23:56;;;;;;;34.40;12.75;;;;;;;7.35;100.00;102333.38;4981103;28;20050;-73
2023/04/16 06:26:21;;;;;;;35.08;12.90;;;;;;;7.37;100.00;102338.63;4966592;28;20046;-73
2023/04/16 06:28:47;;;;;;;33.72;12.07;;;;;;;7.37;100.00;102334.25;4964426;28;20038;-74
2023/04/16 06:31:13;;;;;;;37.13;10.95;;;;;;;7.38;100.00;102343.00;4981297;28;20101;-73
2023/04/16 06:33:38;;;;;;;27.23;10.85;;;;;;;7.38;100.00;102341.25;4965769;28;20081;-73
2023/04/16 06:36:04;;;;;;;37.08;12.02;;;;;;;7.39;100.00;102353.56;4966888;28;20120;-73
2023/04/16 06:38:29;;;;;;;37.33;11.88;;;;;;;7.40;100.00;102350.03;4961004;28;20104;-73
2023/04/16 06:40:55;;;;;;;29.33;11.15;;;;;;;7.41;100.00;102351.75;4965105;28;20108;-73
2023/04/16 06:43:21;;;;;;;27.23;11.18;;;;;;;7.45;100.00;102349.97;4965725;28;20286;-74
2023/04/16 06:45:56;;;;;;;26.95;10.30;;;;;;;7.46;100.00;102357.88;4962776;28;20042;-73
2023/04/16 06:48:21;;;;;;;32.20;11.27;;;;;;;7.49;100.00;102354.34;4965027;28;20046;-73
2023/04/16 06:50:47;;;;;;;30.85;11.60;;;;;;;7.50;100.00;102355.22;4980893;28;20119;-73
2023/04/16 06:53:12;;;;;;;35.78;12.77;;;;;;;7.48;100.00;102358.72;4965623;28;20066;-74
2023/04/16 06:55:38;;;;;;;34.75;11.57;;;;;;;7.51;100.00;102363.09;4962809;28;20062;-73
2023/04/16 06:58:03;;;;;;;33.72;11.75;;;;;;;7.50;100.00;102365.75;4961889;28;20152;-74
2023/04/16 07:00:28;;;;;;;30.80;10.50;;;;;;;7.50;100.00;102365.75;4965494;28;20038;-74
2023/04/16 07:02:54;;;;;;;33.40;11.23;;;;;;;7.48;100.00;102374.53;4965191;28;20050;-74
2023/04/16 07:05:20;;;;;;;29.38;11.98;;;;;;;7.48;100.00;102374.53;4963654;28;20046;-74
2023/04/16 07:07:45;;;;;;;33.58;12.73;;;;;;;7.50;100.00;102365.75;4952062;28;20064;-74
2023/04/16 07:10:11;;;;;;;33.47;11.85;;;;;;;7.52;100.00;102375.38;4967530;28;20058;-73
2023/04/16 07:12:36;;;;;;;33.63;11.68;;;;;;;7.53;100.00;102374.53;4962896;28;20165;-74
2023/04/16 07:15:02;;;;;;;29.92;11.88;;;;;;;7.54;100.00;102370.13;4947361;28;20521;-74
2023/04/16 07:17:27;;;;;;;30.08;11.52;;;;;;;7.56;100.00;102378.88;4980230;28;20440;-74
2023/04/16 07:19:53;;;;;;;38.28;13.38;;;;;;;7.60;100.00;102375.34;4949168;28;20100;-74
2023/04/16 07:22:19;;;;;;;36.55;12.18;;;;;;;7.64;100.00;102376.19;4962951;28;20121;-74
2023/04/16 07:24:45;;;;;;;34.47;12.15;;;;;;;7.65;100.00;102380.56;4948791;28;20135;-74
2023/04/16 07:27:10;;;;;;;30.58;12.15;;;;;;;7.65;100.00;102381.47;4946739;28;20054;-74
2023/04/16 07:29:36;;;;;;;31.50;10.90;;;;;;;7.65;100.00;102381.47;4962878;28;20034;-74
2023/04/16 07:32:01;;;;;;;25.40;10.18;;;;;;;7.65;100.00;102384.09;4964589;28;20046;-74
2023/04/16 07:34:27;;;;;;;26.23;9.93;;;;;;;7.65;100.00;102381.47;4964849;28;20077;-73
2023/04/16 07:36:52;;;;;;;28.63;10.50;;;;;;;7.68;100.00;102380.56;4964167;28;20536;-74
2023/04/16 07:39:18;;;;;;;30.30;11.43;;;;;;;7.68;100.00;102397.22;4963481;28;20042;-74
2023/04/16 07:41:43;;;;;;;24.58;9.73;;;;;;;7.70;100.00;102397.22;4947085;28;20446;-74
2023/04/16 07:44:09;;;;;;;23.95;9.77;;;;;;;7.71;100.00;102394.59;4965312;28;20675;-73
2023/04/16 07:46:34;;;;;;;29.90;10.57;;;;;;;7.72;100.00;102398.97;4960524;28;20060;-73
2023/04/16 07:49:00;;;;;;;25.77;10.00;;;;;;;7.74;100.00;102397.19;4964179;28;20482;-74
2023/04/16 07:51:26;;;;;;;26.98;10.63;;;;;;;7.80;100.00;102398.03;4964294;28;20104;-72
2023/04/16 07:53:51;;;;;;;22.40;9.63;;;;;;;7.80;100.00;102398.03;4979587;28;20049;-72
2023/04/16 07:56:17;;;;;;;25.20;9.93;;;;;;;7.81;100.00;102403.28;4962573;28;20764;-72
2023/04/16 07:58:42;;;;;;;25.75;9.55;;;;;;;7.83;100.00;102403.25;4964694;28;20689;-72
2023/04/16 08:01:08;;;;;;;25.73;10.18;;;;;;;7.86;100.00;102408.53;4964575;28;20102;-72
2023/04/16 08:03:33;;;;;;;25.30;9.90;;;;;;;7.86;100.00;102411.16;4949649;28;20069;-72
2023/04/16 08:05:59;;;;;;;23.35;9.55;;;;;;;7.85;100.00;102414.69;4963991;28;20049;-73
2023/04/16 08:08:25;;;;;;;31.10;10.80;;;;;;;7.86;100.00;102414.66;4964744;28;20046;-73
2023/04/16 08:10:54;;;;;;;25.17;10.13;;;;;;;7.87;100.00;102413.78;4964405;28;20054;-72
2023/04/16 08:13:22;;;;;;;24.17;9.38;;;;;;;7.90;100.00;102418.13;4961927;28;20528;-72
2023/04/16 08:15:47;;;;;;;32.90;10.63;;;;;;;7.91;100.00;102424.28;4964722;28;20034;-74
2023/04/16 08:18:14;;;;;;;21.08;10.50;;;;;;;7.88;100.00;102422.56;4964584;28;20127;-74
2023/04/16 08:20:40;;;;;;;27.48;10.48;;;;;;;7.90;100.00;102426.03;4945837;28;20043;-74
2023/04/16 08:23:07;;;;;;;21.52;9.13;;;;;;;7.91;100.00;102424.28;4946932;28;20078;-74
2023/04/16 08:25:33;;;;;;;32.15;10.23;;;;;;;7.92;100.00;102426.94;4964550;28;20618;-72
2023/04/16 08:27:58;;;;;;;27.67;9.90;;;;;;;7.93;100.00;102425.16;4964687;28;20185;-72
2023/04/16 08:30:24;;;;;;;24.10;10.43;;;;;;;7.93;100.00;102428.66;4961465;28;20039;-72
2023/04/16 08:32:49;;;;;;;24.63;9.60;;;;;;;7.94;100.00;102425.16;4950523;28;20042;-74
2023/04/16 08:35:15;;;;;;;29.20;9.98;;;;;;;7.95;100.00;102432.16;4947684;28;20045;-74
2023/04/16 08:37:40;;;;;;;23.08;9.40;;;;;;;7.99;100.00;102433.00;4948346;28;20047;-74
2023/04/16 08:40:09;;;;;;;27.02;9.93;;;;;;;8.01;100.00;102436.53;4962703;28;20049;-74
2023/04/16 08:42:57;;;;;;;22.88;10.88;;;;;;;8.05;100.00;102437.38;4947888;28;20044;-74
2023/04/16 08:45:25;;;;;;;27.65;10.77;;;;;;;8.05;100.00;102446.16;4963996;28;20038;-74
2023/04/16 08:47:51;;;;;;;23.77;10.45;;;;;;;8.10;100.00;102446.09;4963060;28;20053;-74
2023/04/16 08:50:22;;;;;;;25.40;10.40;;;;;;;8.11;100.00;102459.28;4947649;28;20042;-74
2023/04/16 08:53:09;;;;;;;21.35;9.75;;;;;;;8.11;100.00;102453.13;4964003;28;20077;-74
2023/04/16 08:55:37;;;;;;;23.20;9.55;;;;;;;8.11;100.00;102458.38;4959449;28;20078;-73
2023/04/16 08:58:08;;;;;;;21.83;9.15;;;;;;;8.10;100.00;102459.28;4978765;28;20153;-74
2023/04/16 09:00:34;;;;;;;24.05;9.85;;;;;;;8.10;100.00;102456.66;4980414;28;20081;-72
2023/04/16 09:03:00;;;;;;;25.83;10.02;;;;;;;8.12;100.00;102462.81;4968164;28;20034;-72
2023/04/16 09:05:26;;;;;;;18.58;9.77;;;;;;;8.11;100.00;102456.66;4965742;28;20034;-72
2023/04/16 09:07:53;;;;;;;21.40;9.13;;;;;;;8.14;100.00;102453.09;4967148;28;20395;-72
2023/04/16 09:10:19;;;;;;;23.30;10.70;;;;;;;8.17;100.00;102455.69;4968241;28;20393;-72
2023/04/16 09:12:44;;;;;;;25.23;10.05;;;;;;;8.20;100.00;102449.53;4965052;28;20078;-72
2023/04/16 09:15:11;;;;;;;26.30;9.82;;;;;;;8.23;100.00;102458.28;4951603;28;20033;-72
2023/04/16 09:17:37;;;;;;;23.70;9.77;;;;;;;8.28;100.00;102452.94;4967290;28;20046;-72
2023/04/16 09:20:07;;;;;;;26.73;10.57;;;;;;;8.34;100.00;102452.03;4949408;28;20167;-72
2023/04/16 09:22:34;;;;;;;23.67;10.00;;;;;;;8.37;100.00;102449.34;4949038;28;20039;-73
2023/04/16 09:25:00;;;;;;;32.17;11.00;;;;;;;8.39;100.00;102448.44;4965604;28;20065;-73
2023/04/16 09:27:25;;;;;;;26.88;11.07;;;;;;;8.42;100.00;102447.53;4982232;28;20069;-73
2023/04/16 09:29:51;;;;;;;25.95;10.07;;;;;;;8.48;100.00;102450.13;4965616;28;20086;-72
2023/04/16 09:32:17;;;;;;;27.05;10.32;;;;;;;8.52;100.00;102457.16;4967187;28;20125;-72
2023/04/16 09:34:59;;;;;;;16.75;8.52;;;;;;;8.60;100.00;102453.56;4937848;28;20049;-72
2023/04/16 09:37:29;;;;;;;19.55;7.75;;;;;;;8.65;100.00;102451.72;4947649;28;20060;-72
2023/04/16 09:39:58;;;;;;;22.50;9.65;;;;;;;8.68;100.00;102451.69;4930551;28;20039;-72
2023/04/16 09:42:31;;;;;;;23.15;9.60;;;;;;;8.75;100.00;102452.47;4982239;28;20041;-72
2023/04/16 09:44:58;;;;;;;25.25;9.98;;;;;;;8.81;100.00;102449.78;4966512;28;20057;-72
2023/04/16 09:47:39;;;;;;;23.65;9.98;;;;;;;8.90;100.00;102462.00;4965404;28;20125;-72
2023/04/16 09:50:04;;;;;;;23.98;10.73;;;;;;;8.96;100.00;102460.16;4966315;28;20039;-72
2023/04/16 09:52:30;;;;;;;24.38;9.68;;;;;;;9.03;100.00;102460.94;4966680;28;20061;-72
2023/04/16 09:54:55;;;;;;;31.05;10.40;;;;;;;9.07;100.00;102467.06;4965941;28;20608;-72
2023/04/16 09:57:23;;;;;;;24.75;10.10;;;;;;;9.10;100.00;102459.97;4965725;28;20061;-72
2023/04/16 09:59:53;;;;;;;20.75;8.73;;;;;;;9.15;100.00;102459.03;4966171;28;20037;-73
2023/04/16 10:02:19;;;;;;;20.38;9.57;;;;;;;9.19;100.00;102466.00;4966884;28;20038;-72
2023/04/16 10:04:49;;;;;;;20.23;9.90;;;;;;;9.22;100.00;102471.28;4965099;28;20093;-73
2023/04/16 10:07:15;;;;;;;21.08;9.55;;;;;;;9.26;100.00;102467.69;4965756;28;20042;-73
2023/04/16 10:09:40;;;;;;;19.77;8.75;;;;;;;9.24;100.00;102464.19;4981038;28;20026;-72
2023/04/16 10:12:07;;;;;;;24.95;9.93;;;;;;;9.28;100.00;102467.66;4979418;28;20065;-73
2023/04/16 10:14:32;;;;;;;22.45;9.88;;;;;;;9.30;100.00;102472.03;4978469;28;20050;-73
2023/04/16 10:16:58;;;;;;;19.10;9.20;;;;;;;9.32;100.00;102474.66;4963916;28;20410;-74
2023/04/16 10:19:25;;;;;;;22.77;10.15;;;;;;;9.34;100.00;102471.13;4949586;28;20039;-72
2023/04/16 10:21:51;;;;;;;25.88;10.02;;;;;;;9.34;100.00;102476.41;4945619;28;20042;-71
2023/04/16 10:24:17;;;;;;;23.35;9.93;;;;;;;9.38;100.00;102478.09;4966438;28;20073;-74
2023/04/16 10:26:43;;;;;;;17.60;9.48;;;;;;;9.44;100.00;102487.72;4965168;28;20042;-74
2023/04/16 10:29:11;;;;;;;22.65;9.07;;;;;;;9.49;100.00;102485.00;4966145;28;20050;-74
2023/04/16 10:31:37;;;;;;;23.63;10.00;;;;;;;9.50;100.00;102481.44;4964682;28;20038;-72
2023/04/16 10:34:04;;;;;;;19.95;10.23;;;;;;;9.53;100.00;102475.25;4965586;28;20384;-73
2023/04/16 10:36:30;;;;;;;18.92;9.90;;;;;;;9.50;100.00;102479.66;4965426;28;20038;-72
2023/04/16 10:38:59;;;;;;;21.70;9.35;;;;;;;9.57;100.00;102482.22;4963648;28;20041;-73
2023/04/16 10:41:26;;;;;;;21.88;11.07;;;;;;;9.63;100.00;102487.41;4966211;28;20069;-73
2023/04/16 10:43:51;;;;;;;24.85;10.00;;;;;;;9.73;100.00;102488.16;4980587;28;20050;-71
2023/04/16 10:46:22;;;;;;;23.67;9.70;;;;;;;9.78;100.00;102491.59;4965533;28;20030;-73
2023/04/16 10:48:49;;;;;;;18.05;9.55;;;;;;;9.76;100.00;102486.34;4964304;28;20039;-74
2023/04/16 10:51:26;;;;;;;22.05;10.57;;;;;;;9.73;100.00;102485.50;4965631;28;20034;-74
2023/04/16 10:54:07;;;;;;;25.77;10.70;;;;;;;9.74;100.00;102489.91;4979897;28;20042;-73
2023/04/16 10:56:34;;;;;;;22.38;10.40;;;;;;;9.73;100.00;102489.03;4963348;28;20069;-73
2023/04/16 10:59:03;;;;;;;23.88;10.48;;;;;;;9.70;100.00;102491.72;4948665;28;20042;-72
2023/04/16 11:01:33;;;;;;;25.50;11.02;;;;;;;9.67;100.00;102493.53;4963699;28;20258;-74
2023/04/16 11:04:00;;;;;;;24.58;9.98;;;;;;;9.64;100.00;102494.44;4964487;28;20121;-73
2023/04/16 11:06:27;;;;;;;23.33;10.57;;;;;;;9.64;100.00;102487.41;4962584;28;20046;-73
2023/04/16 11:08:53;;;;;;;25.52;10.07;;;;;;;9.67;100.00;102494.41;4947171;28;20073;-73